sensor_id;sensor_type;location;lat;lon;timestamp;pressure;altitude;pressure_sealevel;temperature;humidity
54806;BME280;62866;55.776;37.496;2023-06-14T00:02:12;100233.25;;;14.68;53.34
54806;BME280;62866;55.776;37.496;2023-06-14T00:04:38;100240.91;;;14.71;53.63
54806;BME280;62866;55.776;37.496;2023-06-14T00:07:05;100240.47;;;14.67;53.76
54806;BME280;62866;55.776;37.496;2023-06-14T00:09:33;100239.47;;;14.68;53.83
54806;BME280;62866;55.776;37.496;2023-06-14T00:11:58;100237.16;;;14.65;53.88
54806;BME280;62866;55.776;37.496;2023-06-14T00:14:24;100229.28;;;14.57;53.69
54806;BME280;62866;55.776;37.496;2023-06-14T00:16:49;100234.44;;;14.52;53.79
54806;BME280;62866;55.776;37.496;2023-06-14T00:19:17;100237.97;;;14.53;54.10
54806;BME280;62866;55.776;37.496;2023-06-14T00:21:43;100234.84;;;14.49;54.22
54806;BME280;62866;55.776;37.496;2023-06-14T00:24:08;100242.72;;;14.51;54.27
54806;BME280;62866;55.776;37.496;2023-06-14T00:26:34;100240.03;;;14.44;54.45
54806;BME280;62866;55.776;37.496;2023-06-14T00:29:00;100244.97;;;14.40;54.86
54806;BME280;62866;55.776;37.496;2023-06-14T00:31:25;100240.16;;;14.29;55.01
54806;BME280;62866;55.776;37.496;2023-06-14T00:33:51;100236.19;;;14.25;54.97
54806;BME280;62866;55.776;37.496;2023-06-14T00:36:16;100239.31;;;14.29;54.91
54806;BME280;62866;55.776;37.496;2023-06-14T00:38:42;100235.16;;;14.26;55.08
54806;BME280;62866;55.776;37.496;2023-06-14T00:41:07;100241.78;;;14.24;55.24
54806;BME280;62866;55.776;37.496;2023-06-14T00:43:32;100239.69;;;14.19;55.12
54806;BME280;62866;55.776;37.496;2023-06-14T00:46:00;100240.72;;;14.18;55.54
54806;BME280;62866;55.776;37.496;2023-06-14T00:48:25;100245.47;;;14.16;55.51
54806;BME280;62866;55.776;37.496;2023-06-14T00:50:52;100223.47;;;13.99;55.88
54806;BME280;62866;55.776;37.496;2023-06-14T00:53:18;100249.59;;;14.12;56.13
54806;BME280;62866;55.776;37.496;2023-06-14T00:55:46;100250.63;;;14.11;56.28
54806;BME280;62866;55.776;37.496;2023-06-14T00:58:12;100240.44;;;14.06;56.19
54806;BME280;62866;55.776;37.496;2023-06-14T01:00:39;100245.84;;;14.06;56.11
54806;BME280;62866;55.776;37.496;2023-06-14T01:03:04;100243.38;;;14.05;56.18
54806;BME280;62866;55.776;37.496;2023-06-14T01:05:30;100250.19;;;14.07;56.17
54806;BME280;62866;55.776;37.496;2023-06-14T01:10:53;100243.13;;;14.00;56.18
54806;BME280;62866;55.776;37.496;2023-06-14T01:13:28;100236.06;;;13.92;56.37
54806;BME280;62866;55.776;37.496;2023-06-14T01:15:55;100230.03;;;13.90;56.54
54806;BME280;62866;55.776;37.496;2023-06-14T01:18:21;100241.88;;;13.96;57.07
54806;BME280;62866;55.776;37.496;2023-06-14T01:20:49;100239.00;;;13.97;56.77
54806;BME280;62866;55.776;37.496;2023-06-14T01:23:20;100227.56;;;13.89;56.88
54806;BME280;62866;55.776;37.496;2023-06-14T01:25:46;100240.22;;;13.95;56.87
54806;BME280;62866;55.776;37.496;2023-06-14T01:28:12;100245.16;;;13.98;57.02
54806;BME280;62866;55.776;37.496;2023-06-14T01:30:44;100234.19;;;13.93;57.35
54806;BME280;62866;55.776;37.496;2023-06-14T01:33:15;100236.06;;;13.92;57.38
54806;BME280;62866;55.776;37.496;2023-06-14T01:35:43;100242.72;;;13.96;57.10
54806;BME280;62866;55.776;37.496;2023-06-14T01:38:10;100245.41;;;13.96;57.26
54806;BME280;62866;55.776;37.496;2023-06-14T01:40:36;100246.63;;;14.00;57.52
54806;BME280;62866;55.776;37.496;2023-06-14T01:43:03;100243.94;;;14.00;57.54
54806;BME280;62866;55.776;37.496;2023-06-14T01:45:30;100248.53;;;14.06;57.65
54806;BME280;62866;55.776;37.496;2023-06-14T01:47:56;100249.34;;;14.07;57.72
54806;BME280;62866;55.776;37.496;2023-06-14T01:50:22;100250.38;;;14.06;57.75
54806;BME280;62866;55.776;37.496;2023-06-14T01:52:48;100237.16;;;14.04;58.12
54806;BME280;62866;55.776;37.496;2023-06-14T01:55:13;100261.41;;;14.18;57.95
54806;BME280;62866;55.776;37.496;2023-06-14T01:57:39;100193.84;;;13.86;58.09
54806;BME280;62866;55.776;37.496;2023-06-14T02:00:05;100257.31;;;14.22;58.39
54806;BME280;62866;55.776;37.496;2023-06-14T02:02:37;100254.63;;;14.28;57.80
54806;BME280;62866;55.776;37.496;2023-06-14T02:05:03;100232.88;;;14.23;57.87
54806;BME280;62866;55.776;37.496;2023-06-14T02:07:29;100246.63;;;14.41;57.99
54806;BME280;62866;55.776;37.496;2023-06-14T02:09:55;100234.63;;;14.44;57.87
54806;BME280;62866;55.776;37.496;2023-06-14T02:12:20;100244.00;;;14.55;57.48
54806;BME280;62866;55.776;37.496;2023-06-14T02:14:45;100246.06;;;14.59;57.81
54806;BME280;62866;55.776;37.496;2023-06-14T02:17:11;100243.59;;;14.64;57.76
54806;BME280;62866;55.776;37.496;2023-06-14T02:19:37;100234.69;;;14.64;57.89
54806;BME280;62866;55.776;37.496;2023-06-14T02:22:02;100235.09;;;14.74;58.16
54806;BME280;62866;55.776;37.496;2023-06-14T02:24:28;100232.66;;;14.79;57.75
54806;BME280;62866;55.776;37.496;2023-06-14T02:26:53;100242.19;;;14.95;57.57
54806;BME280;62866;55.776;37.496;2023-06-14T02:29:19;100239.69;;;15.00;57.66
54806;BME280;62866;55.776;37.496;2023-06-14T02:31:44;100240.13;;;15.10;56.96
54806;BME280;62866;55.776;37.496;2023-06-14T02:34:12;100245.09;;;15.26;56.64
54806;BME280;62866;55.776;37.496;2023-06-14T02:36:38;100244.69;;;15.29;55.85
54806;BME280;62866;55.776;37.496;2023-06-14T02:39:09;100228.31;;;15.24;55.82
54806;BME280;62866;55.776;37.496;2023-06-14T02:41:35;100247.78;;;15.39;55.87
54806;BME280;62866;55.776;37.496;2023-06-14T02:44:01;100236.59;;;15.42;55.02
54806;BME280;62866;55.776;37.496;2023-06-14T02:46:27;100253.19;;;15.59;56.09
54806;BME280;62866;55.776;37.496;2023-06-14T02:48:52;100245.06;;;15.66;56.40
54806;BME280;62866;55.776;37.496;2023-06-14T02:51:18;100255.41;;;15.82;54.78
54806;BME280;62866;55.776;37.496;2023-06-14T02:53:43;100239.47;;;15.80;55.41
54806;BME280;62866;55.776;37.496;2023-06-14T02:56:09;100252.50;;;15.97;54.75
54806;BME280;62866;55.776;37.496;2023-06-14T02:58:36;100261.38;;;16.04;55.03
54806;BME280;62866;55.776;37.496;2023-06-14T03:01:02;100267.56;;;16.11;55.35
54806;BME280;62866;55.776;37.496;2023-06-14T03:03:29;100254.28;;;16.09;54.96
54806;BME280;62866;55.776;37.496;2023-06-14T03:05:55;100269.78;;;16.27;55.22
54806;BME280;62866;55.776;37.496;2023-06-14T03:08:20;100270.41;;;16.29;54.05
54806;BME280;62866;55.776;37.496;2023-06-14T03:10:46;100271.63;;;16.33;54.34
54806;BME280;62866;55.776;37.496;2023-06-14T03:13:15;100266.66;;;16.37;54.52
54806;BME280;62866;55.776;37.496;2023-06-14T03:15:47;100264.78;;;16.37;53.74
54806;BME280;62866;55.776;37.496;2023-06-14T03:18:16;100265.41;;;16.32;54.45
54806;BME280;62866;55.776;37.496;2023-06-14T03:20:42;100241.00;;;16.14;53.66
54806;BME280;62866;55.776;37.496;2023-06-14T03:23:08;100266.69;;;16.30;54.04
54806;BME280;62866;55.776;37.496;2023-06-14T03:25:34;100272.06;;;16.30;53.51
54806;BME280;62866;55.776;37.496;2023-06-14T03:28:01;100269.16;;;16.31;53.94
54806;BME280;62866;55.776;37.496;2023-06-14T03:30:27;100255.31;;;16.21;53.49
54806;BME280;62866;55.776;37.496;2023-06-14T03:32:53;100260.25;;;16.31;54.17
54806;BME280;62866;55.776;37.496;2023-06-14T03:35:21;100265.41;;;16.32;54.06
54806;BME280;62866;55.776;37.496;2023-06-14T03:37:47;100248.63;;;16.24;54.47
54806;BME280;62866;55.776;37.496;2023-06-14T03:40:14;100264.34;;;16.40;54.47
54806;BME280;62866;55.776;37.496;2023-06-14T03:42:40;100260.00;;;16.39;54.55
54806;BME280;62866;55.776;37.496;2023-06-14T03:45:06;100244.59;;;16.46;54.10
54806;BME280;62866;55.776;37.496;2023-06-14T03:47:32;100247.50;;;16.45;53.52
54806;BME280;62866;55.776;37.496;2023-06-14T03:49:58;100245.44;;;16.47;53.04
54806;BME280;62866;55.776;37.496;2023-06-14T03:52:23;100258.84;;;16.60;53.09
54806;BME280;62866;55.776;37.496;2023-06-14T03:54:50;100263.63;;;16.64;53.01
54806;BME280;62866;55.776;37.496;2023-06-14T03:57:16;100257.56;;;16.69;52.47
54806;BME280;62866;55.776;37.496;2023-06-14T03:59:42;100250.72;;;16.73;52.46
54806;BME280;62866;55.776;37.496;2023-06-14T04:02:07;100256.44;;;16.83;52.19
54806;BME280;62866;55.776;37.496;2023-06-14T04:04:35;100255.34;;;16.91;52.30
54806;BME280;62866;55.776;37.496;2023-06-14T04:07:00;100264.84;;;17.00;52.01
54806;BME280;62866;55.776;37.496;2023-06-14T04:09:31;100254.00;;;17.06;51.78
54806;BME280;62866;55.776;37.496;2023-06-14T04:11:57;100273.78;;;17.25;51.46
54806;BME280;62866;55.776;37.496;2023-06-14T04:14:22;100255.84;;;17.37;51.34
54806;BME280;62866;55.776;37.496;2023-06-14T04:16:49;100250.06;;;17.52;50.76
54806;BME280;62866;55.776;37.496;2023-06-14T04:19:15;100261.72;;;17.77;50.06
54806;BME280;62866;55.776;37.496;2023-06-14T04:21:41;100252.41;;;17.92;49.71
54806;BME280;62866;55.776;37.496;2023-06-14T04:24:07;100265.84;;;18.16;49.20
54806;BME280;62866;55.776;37.496;2023-06-14T04:26:38;100254.78;;;18.36;49.39
54806;BME280;62866;55.776;37.496;2023-06-14T04:29:04;100261.38;;;18.58;49.66
54806;BME280;62866;55.776;37.496;2023-06-14T04:31:31;100259.97;;;18.86;48.17
54806;BME280;62866;55.776;37.496;2023-06-14T04:34:03;100255.78;;;19.13;47.50
54806;BME280;62866;55.776;37.496;2023-06-14T04:36:32;100240.34;;;19.25;47.04
54806;BME280;62866;55.776;37.496;2023-06-14T04:39:00;100239.44;;;19.43;46.99
54806;BME280;62866;55.776;37.496;2023-06-14T04:41:29;100245.38;;;19.63;46.35
54806;BME280;62866;55.776;37.496;2023-06-14T04:44:00;100251.25;;;19.84;46.10
54806;BME280;62866;55.776;37.496;2023-06-14T04:46:30;100232.50;;;19.82;45.96
54806;BME280;62866;55.776;37.496;2023-06-14T04:48:57;100255.44;;;20.15;44.68
54806;BME280;62866;55.776;37.496;2023-06-14T04:51:23;100248.59;;;20.12;44.26
54806;BME280;62866;55.776;37.496;2023-06-14T04:53:58;100257.50;;;20.48;43.89
54806;BME280;62866;55.776;37.496;2023-06-14T04:56:24;100246.72;;;20.81;43.71
54806;BME280;62866;55.776;37.496;2023-06-14T04:58:51;100249.50;;;21.14;42.80
54806;BME280;62866;55.776;37.496;2023-06-14T05:01:18;100250.91;;;21.50;41.56
54806;BME280;62866;55.776;37.496;2023-06-14T05:03:44;100246.34;;;21.73;41.70
54806;BME280;62866;55.776;37.496;2023-06-14T05:06:11;100249.00;;;22.06;40.52
54806;BME280;62866;55.776;37.496;2023-06-14T05:08:37;100244.75;;;22.86;39.12
54806;BME280;62866;55.776;37.496;2023-06-14T05:11:02;100235.91;;;22.74;38.48
54806;BME280;62866;55.776;37.496;2023-06-14T05:13:28;100231.66;;;22.83;38.61
54806;BME280;62866;55.776;37.496;2023-06-14T05:15:53;100255.22;;;22.72;38.99
54806;BME280;62866;55.776;37.496;2023-06-14T05:18:19;100249.53;;;22.52;39.35
54806;BME280;62866;55.776;37.496;2023-06-14T05:20:45;100249.91;;;22.33;39.24
54806;BME280;62866;55.776;37.496;2023-06-14T05:23:11;100247.56;;;22.20;40.11
54806;BME280;62866;55.776;37.496;2023-06-14T05:25:44;100226.16;;;22.07;39.88
54806;BME280;62866;55.776;37.496;2023-06-14T05:28:10;100240.66;;;22.83;38.98
54806;BME280;62866;55.776;37.496;2023-06-14T05:30:37;100242.34;;;23.53;37.79
54806;BME280;62866;55.776;37.496;2023-06-14T05:33:03;100236.41;;;23.61;37.30
54806;BME280;62866;55.776;37.496;2023-06-14T05:35:32;100229.94;;;23.77;36.52
54806;BME280;62866;55.776;37.496;2023-06-14T05:37:58;100245.09;;;24.00;36.35
54806;BME280;62866;55.776;37.496;2023-06-14T05:40:23;100242.53;;;24.36;35.82
54806;BME280;62866;55.776;37.496;2023-06-14T05:42:49;100230.19;;;24.23;35.66
54806;BME280;62866;55.776;37.496;2023-06-14T05:45:14;100245.59;;;23.92;36.41
54806;BME280;62866;55.776;37.496;2023-06-14T05:47:43;100246.53;;;23.66;36.96
54806;BME280;62866;55.776;37.496;2023-06-14T05:50:09;100242.66;;;23.57;37.55
54806;BME280;62866;55.776;37.496;2023-06-14T05:52:35;100242.78;;;23.40;37.66
54806;BME280;62866;55.776;37.496;2023-06-14T05:55:04;100235.72;;;23.12;37.53
54806;BME280;62866;55.776;37.496;2023-06-14T05:57:30;100239.50;;;23.06;36.69
54806;BME280;62866;55.776;37.496;2023-06-14T05:59:55;100245.91;;;23.22;36.89
54806;BME280;62866;55.776;37.496;2023-06-14T06:02:21;100241.38;;;23.37;37.20
54806;BME280;62866;55.776;37.496;2023-06-14T06:04:46;100242.81;;;24.34;35.75
54806;BME280;62866;55.776;37.496;2023-06-14T06:07:12;100253.13;;;25.15;34.28
54806;BME280;62866;55.776;37.496;2023-06-14T06:09:37;100237.72;;;24.68;34.06
54806;BME280;62866;55.776;37.496;2023-06-14T06:12:06;100247.41;;;24.24;34.11
54806;BME280;62866;55.776;37.496;2023-06-14T06:14:32;100234.69;;;23.97;34.57
54806;BME280;62866;55.776;37.496;2023-06-14T06:16:57;100237.69;;;23.96;34.89
54806;BME280;62866;55.776;37.496;2023-06-14T06:19:23;100241.31;;;24.06;34.82
54806;BME280;62866;55.776;37.496;2023-06-14T06:21:49;100243.22;;;24.06;35.01
54806;BME280;62866;55.776;37.496;2023-06-14T06:24:15;100245.72;;;24.17;34.82
54806;BME280;62866;55.776;37.496;2023-06-14T06:26:40;100234.50;;;24.19;34.60
54806;BME280;62866;55.776;37.496;2023-06-14T06:29:06;100235.16;;;24.31;32.97
54806;BME280;62866;55.776;37.496;2023-06-14T06:31:31;100248.84;;;24.41;32.79
54806;BME280;62866;55.776;37.496;2023-06-14T06:33:57;100251.72;;;24.09;33.33
54806;BME280;62866;55.776;37.496;2023-06-14T06:36:22;100241.16;;;23.76;33.30
54806;BME280;62866;55.776;37.496;2023-06-14T06:38:48;100248.03;;;23.83;33.13
54806;BME280;62866;55.776;37.496;2023-06-14T06:41:14;100242.53;;;24.36;32.99
54806;BME280;62866;55.776;37.496;2023-06-14T06:43:39;100235.81;;;24.79;32.09
54806;BME280;62866;55.776;37.496;2023-06-14T06:46:05;100229.84;;;24.92;31.68
54806;BME280;62866;55.776;37.496;2023-06-14T06:48:30;100228.50;;;25.15;31.55
54806;BME280;62866;55.776;37.496;2023-06-14T06:50:56;100233.41;;;25.43;31.31
54806;BME280;62866;55.776;37.496;2023-06-14T06:53:21;100220.78;;;25.57;31.01
54806;BME280;62866;55.776;37.496;2023-06-14T06:55:48;100233.94;;;25.40;31.18
54806;BME280;62866;55.776;37.496;2023-06-14T06:58:15;100233.41;;;25.13;30.95
54806;BME280;62866;55.776;37.496;2023-06-14T07:00:40;100231.44;;;24.83;31.97
54806;BME280;62866;55.776;37.496;2023-06-14T07:03:06;100230.13;;;25.01;31.95
54806;BME280;62866;55.776;37.496;2023-06-14T07:05:32;100232.03;;;25.66;31.42
54806;BME280;62866;55.776;37.496;2023-06-14T07:07:57;100224.25;;;25.98;30.99
54806;BME280;62866;55.776;37.496;2023-06-14T07:10:23;100222.38;;;25.94;30.56
54806;BME280;62866;55.776;37.496;2023-06-14T07:12:52;100224.88;;;25.75;30.91
54806;BME280;62866;55.776;37.496;2023-06-14T07:15:18;100229.84;;;25.38;30.79
54806;BME280;62866;55.776;37.496;2023-06-14T07:17:43;100215.84;;;24.78;31.38
54806;BME280;62866;55.776;37.496;2023-06-14T07:20:09;100225.09;;;24.47;31.92
54806;BME280;62866;55.776;37.496;2023-06-14T07:22:40;100229.59;;;24.16;31.95
54806;BME280;62866;55.776;37.496;2023-06-14T07:25:10;100229.84;;;23.62;32.75
54806;BME280;62866;55.776;37.496;2023-06-14T07:27:42;100217.72;;;23.43;32.87
54806;BME280;62866;55.776;37.496;2023-06-14T07:30:09;100221.88;;;23.51;32.57
54806;BME280;62866;55.776;37.496;2023-06-14T07:32:36;100220.94;;;23.40;33.30
54806;BME280;62866;55.776;37.496;2023-06-14T07:35:01;100216.69;;;23.49;33.03
54806;BME280;62866;55.776;37.496;2023-06-14T07:37:27;100219.31;;;23.39;33.04
54806;BME280;62866;55.776;37.496;2023-06-14T07:39:52;100216.47;;;23.24;33.48
54806;BME280;62866;55.776;37.496;2023-06-14T07:42:18;100210.47;;;23.27;33.73
54806;BME280;62866;55.776;37.496;2023-06-14T07:44:43;100208.84;;;23.63;33.41
54806;BME280;62866;55.776;37.496;2023-06-14T07:47:08;100208.41;;;23.86;34.07
54806;BME280;62866;55.776;37.496;2023-06-14T07:49:34;100216.69;;;24.01;34.30
54806;BME280;62866;55.776;37.496;2023-06-14T07:51:59;100209.59;;;24.05;33.14
54806;BME280;62866;55.776;37.496;2023-06-14T07:54:25;100205.53;;;24.08;32.65
54806;BME280;62866;55.776;37.496;2023-06-14T07:56:52;100212.31;;;24.00;32.92
54806;BME280;62866;55.776;37.496;2023-06-14T07:59:18;100197.28;;;23.93;32.97
54806;BME280;62866;55.776;37.496;2023-06-14T08:01:43;100189.03;;;23.88;32.67
54806;BME280;62866;55.776;37.496;2023-06-14T08:04:16;100212.28;;;23.90;33.38
54806;BME280;62866;55.776;37.496;2023-06-14T08:06:42;100210.28;;;23.75;32.73
54806;BME280;62866;55.776;37.496;2023-06-14T08:09:11;100193.75;;;23.50;33.46
54806;BME280;62866;55.776;37.496;2023-06-14T08:11:37;100207.69;;;23.54;33.51
54806;BME280;62866;55.776;37.496;2023-06-14T08:14:02;100209.53;;;23.85;32.72
54806;BME280;62866;55.776;37.496;2023-06-14T08:16:28;100205.56;;;24.18;32.31
54806;BME280;62866;55.776;37.496;2023-06-14T08:18:55;100199.91;;;24.40;31.86
54806;BME280;62866;55.776;37.496;2023-06-14T08:21:20;100213.06;;;24.43;32.03
54806;BME280;62866;55.776;37.496;2023-06-14T08:23:46;100199.13;;;24.49;31.93
54806;BME280;62866;55.776;37.496;2023-06-14T08:26:11;100203.81;;;24.79;32.04
54806;BME280;62866;55.776;37.496;2023-06-14T08:28:37;100201.13;;;25.25;32.01
54806;BME280;62866;55.776;37.496;2023-06-14T08:31:02;100207.13;;;26.37;30.87
54806;BME280;62866;55.776;37.496;2023-06-14T08:33:28;100178.69;;;27.64;28.85
54806;BME280;62866;55.776;37.496;2023-06-14T08:35:53;100216.75;;;28.23;28.05
54806;BME280;62866;55.776;37.496;2023-06-14T08:38:19;100205.34;;;28.53;27.38
54806;BME280;62866;55.776;37.496;2023-06-14T08:40:48;100190.31;;;28.03;26.56
54806;BME280;62866;55.776;37.496;2023-06-14T08:43:15;100213.53;;;27.92;27.84
54806;BME280;62866;55.776;37.496;2023-06-14T08:45:41;100203.13;;;27.89;27.23
54806;BME280;62866;55.776;37.496;2023-06-14T08:48:07;100178.59;;;27.16;28.08
54806;BME280;62866;55.776;37.496;2023-06-14T08:50:34;100196.13;;;26.86;28.40
54806;BME280;62866;55.776;37.496;2023-06-14T08:53:02;100191.97;;;26.50;29.23
54806;BME280;62866;55.776;37.496;2023-06-14T08:55:29;100184.69;;;26.20;29.09
54806;BME280;62866;55.776;37.496;2023-06-14T08:57:56;100201.63;;;26.37;28.96
54806;BME280;62866;55.776;37.496;2023-06-14T09:00:26;100192.25;;;26.87;28.33
54806;BME280;62866;55.776;37.496;2023-06-14T09:02:52;100192.53;;;27.25;28.26
54806;BME280;62866;55.776;37.496;2023-06-14T09:05:27;100191.06;;;26.64;28.51
54806;BME280;62866;55.776;37.496;2023-06-14T09:07:53;100182.56;;;26.06;29.42
54806;BME280;62866;55.776;37.496;2023-06-14T09:10:27;100160.00;;;25.65;29.96
54806;BME280;62866;55.776;37.496;2023-06-14T09:12:53;100179.44;;;25.64;30.08
54806;BME280;62866;55.776;37.496;2023-06-14T09:15:18;100175.34;;;25.51;30.12
54806;BME280;62866;55.776;37.496;2023-06-14T09:17:44;100163.06;;;25.28;30.31
54806;BME280;62866;55.776;37.496;2023-06-14T09:20:10;100173.22;;;25.13;30.78
54806;BME280;62866;55.776;37.496;2023-06-14T09:22:37;100166.13;;;25.02;30.83
54806;BME280;62866;55.776;37.496;2023-06-14T09:25:03;100165.03;;;24.92;31.33
54806;BME280;62866;55.776;37.496;2023-06-14T09:27:29;100163.34;;;24.76;31.40
54806;BME280;62866;55.776;37.496;2023-06-14T09:29:55;100159.50;;;24.57;31.53
54806;BME280;62866;55.776;37.496;2023-06-14T09:32:21;100189.84;;;24.55;31.27
54806;BME280;62866;55.776;37.496;2023-06-14T09:34:47;100178.88;;;24.40;31.39
54806;BME280;62866;55.776;37.496;2023-06-14T09:37:13;100182.44;;;24.46;31.18
54806;BME280;62866;55.776;37.496;2023-06-14T09:39:51;100159.16;;;24.23;31.28
54806;BME280;62866;55.776;37.496;2023-06-14T09:42:17;100168.94;;;24.19;31.17
54806;BME280;62866;55.776;37.496;2023-06-14T09:44:46;100170.06;;;24.18;31.39
54806;BME280;62866;55.776;37.496;2023-06-14T09:47:13;100143.78;;;24.02;31.94
54806;BME280;62866;55.776;37.496;2023-06-14T09:49:39;100156.63;;;24.11;31.79
54806;BME280;62866;55.776;37.496;2023-06-14T09:52:07;100179.38;;;24.22;31.93
54806;BME280;62866;55.776;37.496;2023-06-14T09:54:40;100171.19;;;24.27;31.93
54806;BME280;62866;55.776;37.496;2023-06-14T09:57:10;100172.28;;;24.36;31.79
54806;BME280;62866;55.776;37.496;2023-06-14T09:59:41;100157.81;;;24.31;32.61
54806;BME280;62866;55.776;37.496;2023-06-14T10:02:17;100140.06;;;24.33;32.66
54806;BME280;62866;55.776;37.496;2023-06-14T10:04:48;100153.22;;;24.51;32.27
54806;BME280;62866;55.776;37.496;2023-06-14T10:07:19;100126.38;;;24.38;32.16
54806;BME280;62866;55.776;37.496;2023-06-14T10:09:49;100142.78;;;24.33;31.89
54806;BME280;62866;55.776;37.496;2023-06-14T10:12:18;100131.31;;;24.26;32.35
54806;BME280;62866;55.776;37.496;2023-06-14T10:14:51;100143.31;;;24.25;32.94
54806;BME280;62866;55.776;37.496;2023-06-14T10:19:55;100138.66;;;24.20;32.37
54806;BME280;62866;55.776;37.496;2023-06-14T10:22:37;100136.50;;;24.33;32.16
54806;BME280;62866;55.776;37.496;2023-06-14T10:25:13;100134.03;;;24.36;32.01
54806;BME280;62866;55.776;37.496;2023-06-14T10:27:50;100097.38;;;24.17;32.20
54806;BME280;62866;55.776;37.496;2023-06-14T10:30:16;100135.13;;;24.30;32.29
54806;BME280;62866;55.776;37.496;2023-06-14T10:33:04;100127.44;;;24.27;32.37
54806;BME280;62866;55.776;37.496;2023-06-14T10:35:30;100118.66;;;24.20;32.56
54806;BME280;62866;55.776;37.496;2023-06-14T10:38:06;100109.19;;;24.33;33.08
54806;BME280;62866;55.776;37.496;2023-06-14T10:40:33;100126.94;;;24.40;32.95
54806;BME280;62866;55.776;37.496;2023-06-14T10:42:59;100117.09;;;24.39;32.31
54806;BME280;62866;55.776;37.496;2023-06-14T10:45:24;100086.16;;;24.13;32.00
54806;BME280;62866;55.776;37.496;2023-06-14T10:47:50;100109.16;;;24.28;32.69
54806;BME280;62866;55.776;37.496;2023-06-14T10:50:27;100092.69;;;24.07;31.59
54806;BME280;62866;55.776;37.496;2023-06-14T10:52:56;100111.56;;;24.09;32.35
54806;BME280;62866;55.776;37.496;2023-06-14T10:55:22;100094.88;;;24.10;31.89
54806;BME280;62866;55.776;37.496;2023-06-14T10:57:52;100104.41;;;24.03;31.80
54806;BME280;62866;55.776;37.496;2023-06-14T11:00:28;100103.88;;;24.01;32.55
54806;BME280;62866;55.776;37.496;2023-06-14T11:05:55;100106.31;;;24.02;32.48
54806;BME280;62866;55.776;37.496;2023-06-14T11:08:46;100088.28;;;23.96;32.21
54806;BME280;62866;55.776;37.496;2023-06-14T11:11:17;100101.97;;;24.01;32.64
54806;BME280;62866;55.776;37.496;2023-06-14T11:13:45;100111.81;;;24.07;32.73
54806;BME280;62866;55.776;37.496;2023-06-14T11:16:15;100072.16;;;23.95;32.63
54806;BME280;62866;55.776;37.496;2023-06-14T11:18:42;100095.69;;;24.11;33.69
54806;BME280;62866;55.776;37.496;2023-06-14T11:21:09;100082.34;;;24.09;33.39
54806;BME280;62866;55.776;37.496;2023-06-14T11:23:37;100089.47;;;24.20;33.00
54806;BME280;62866;55.776;37.496;2023-06-14T11:26:03;100082.91;;;24.22;33.18
54806;BME280;62866;55.776;37.496;2023-06-14T11:28:41;100085.94;;;24.25;33.63
54806;BME280;62866;55.776;37.496;2023-06-14T11:31:07;100082.66;;;24.23;33.68
54806;BME280;62866;55.776;37.496;2023-06-14T11:33:33;100079.88;;;24.18;33.19
54806;BME280;62866;55.776;37.496;2023-06-14T11:36:02;100092.19;;;24.20;32.97
54806;BME280;62866;55.776;37.496;2023-06-14T11:38:28;100074.44;;;24.23;33.57
54806;BME280;62866;55.776;37.496;2023-06-14T11:40:58;100079.38;;;24.36;33.00
54806;BME280;62866;55.776;37.496;2023-06-14T11:43:24;100033.41;;;24.03;32.96
54806;BME280;62866;55.776;37.496;2023-06-14T11:45:50;100067.03;;;24.13;33.39
54806;BME280;62866;55.776;37.496;2023-06-14T11:48:16;100066.75;;;24.15;32.91
54806;BME280;62866;55.776;37.496;2023-06-14T11:50:42;100054.16;;;24.04;32.81
54806;BME280;62866;55.776;37.496;2023-06-14T11:53:07;100070.84;;;24.12;32.64
54806;BME280;62866;55.776;37.496;2023-06-14T11:55:38;100068.94;;;24.13;32.83
54806;BME280;62866;55.776;37.496;2023-06-14T11:58:04;100061.81;;;24.12;32.55
54806;BME280;62866;55.776;37.496;2023-06-14T12:00:30;100057.19;;;24.07;32.60
54806;BME280;62866;55.776;37.496;2023-06-14T12:02:57;100076.88;;;24.09;32.85
54806;BME280;62866;55.776;37.496;2023-06-14T12:05:23;100064.28;;;24.03;32.91
54806;BME280;62866;55.776;37.496;2023-06-14T12:07:49;100064.56;;;24.02;32.62
54806;BME280;62866;55.776;37.496;2023-06-14T12:10:16;100051.41;;;23.94;32.98
54806;BME280;62866;55.776;37.496;2023-06-14T12:12:42;100055.53;;;23.96;32.91
54806;BME280;62866;55.776;37.496;2023-06-14T12:15:09;100054.44;;;24.02;33.54
54806;BME280;62866;55.776;37.496;2023-06-14T12:17:36;100042.97;;;24.00;33.61
54806;BME280;62866;55.776;37.496;2023-06-14T12:20:08;100055.84;;;24.10;33.44
54806;BME280;62866;55.776;37.496;2023-06-14T12:22:51;100045.72;;;24.05;32.76
54806;BME280;62866;55.776;37.496;2023-06-14T12:25:34;100054.44;;;23.97;32.54
54806;BME280;62866;55.776;37.496;2023-06-14T12:28:08;100051.69;;;23.92;32.66
54806;BME280;62866;55.776;37.496;2023-06-14T12:30:35;100038.81;;;23.77;32.50
54806;BME280;62866;55.776;37.496;2023-06-14T12:33:02;100038.81;;;23.77;32.67
54806;BME280;62866;55.776;37.496;2023-06-14T12:35:27;100043.75;;;23.86;32.48
54806;BME280;62866;55.776;37.496;2023-06-14T12:37:53;100048.41;;;23.85;32.78
54806;BME280;62866;55.776;37.496;2023-06-14T12:40:18;100050.84;;;23.87;32.75
54806;BME280;62866;55.776;37.496;2023-06-14T12:42:45;100047.59;;;23.85;33.08
54806;BME280;62866;55.776;37.496;2023-06-14T12:45:12;100034.19;;;23.83;32.69
54806;BME280;62866;55.776;37.496;2023-06-14T12:47:38;100033.38;;;23.88;33.17
54806;BME280;62866;55.776;37.496;2023-06-14T12:50:05;100042.69;;;23.92;32.87